| Date | Time | Temp. (oF) | Dew Point (oF) | Rel. Hum. (%) | Press. (in.) | Wind Dir. | Wind Speed (mph) | Hourly Rainfall (in.) |
|
|---|---|---|---|---|---|---|---|---|---|
| 1 | 04/28 | 00:00 | 49 | 47 | 95 | 30.19 | E | 2 | 0.00 |
| 2 | 04/27 | 23:00 | 52 | 48 | 87 | 30.22 | SE | 2 | 0.01 |
| 3 | 04/27 | 22:00 | 54 | 46 | 77 | 30.24 | SE | 2 | 0.00 |
| 4 | 04/27 | 21:00 | 57 | 44 | 62 | 30.25 | SSE | 5 | 0.00 |
| 5 | 04/27 | 20:00 | 58 | 39 | 50 | 30.24 | SSE | 3 | 0.00 |
| 6 | 04/27 | 19:00 | 60 | 36 | 42 | 30.24 | SSE | 3 | 0.00 |
| 7 | 04/27 | 18:00 | 61 | 36 | 41 | 30.26 | S | 3 | 0.00 |
| 8 | 04/27 | 17:00 | 62 | 36 | 39 | 30.26 | ESE | 6 | 0.00 |
| 9 | 04/27 | 16:00 | 62 | 39 | 43 | 30.28 | NNE | 5 | 0.00 |
| 10 | 04/27 | 15:00 | 61 | 36 | 40 | 30.33 | SSW | 6 | 0.00 |
| 11 | 04/27 | 14:00 | 59 | 38 | 47 | 30.35 | ESE | 4 | 0.00 |
| 12 | 04/27 | 13:00 | 57 | 35 | 45 | 30.38 | N | 6 | 0.00 |
| 13 | 04/27 | 12:00 | 56 | 36 | 48 | 30.41 | WNW | 2 | 0.00 |
| 14 | 04/27 | 11:00 | 52 | 32 | 47 | 30.43 | N | 3 | 0.00 |
| 15 | 04/27 | 10:00 | 50 | 32 | 50 | 30.43 | NNE | 8 | 0.00 |
| 16 | 04/27 | 09:00 | 47 | 32 | 57 | 30.45 | E | 6 | 0.00 |
| 17 | 04/27 | 08:00 | 40 | 36 | 86 | 30.44 | E | 1 | 0.00 |
| 18 | 04/27 | 07:00 | 34 | 30 | 88 | 30.42 | SE | 0 | 0.00 |
| 19 | 04/27 | 06:00 | 36 | 31 | 82 | 30.40 | N | 1 | 0.00 |
| 20 | 04/27 | 05:00 | 38 | 31 | 76 | 30.38 | N | 0 | 0.00 |
| 21 | 04/27 | 04:00 | 39 | 31 | 75 | 30.36 | SE | 0 | 0.00 |
| 22 | 04/27 | 03:00 | 42 | 30 | 64 | 30.34 | N | 3 | 0.00 |
| 23 | 04/27 | 02:00 | 42 | 31 | 66 | 30.32 | NNE | 2 | 0.00 |
| 24 | 04/27 | 01:00 | 42 | 33 | 71 | 30.30 | N | 0 | 0.00 |